Time;durP1;ratioP1;P1;durP2;ratioP2;P2;SDS_P1;SDS_P2;PMS_P1;PMS_P2;Temp;Humidity;BMP_temperature;BMP_pressure;BME280_temperature;BME280_humidity;BME280_pressure;Samples;Min_cycle;Max_cycle;Signal;HPM_P1;HPM_P2
2023/12/20 00:01:23;;;;;;;16.42;3.15;;;6.80;92.10;;;;;;5051745;28;20041;-82
2023/12/20 00:03:48;;;;;;;12.38;3.30;;;6.80;92.10;;;;;;5035357;28;20048;-80
2023/12/20 00:06:14;;;;;;;15.70;3.33;;;6.80;92.10;;;;;;5043219;28;20041;-80
2023/12/20 00:08:40;;;;;;;12.25;2.78;;;6.60;92.20;;;;;;5055320;28;20128;-81
2023/12/20 00:11:05;;;;;;;14.30;2.83;;;6.60;92.10;;;;;;5039152;28;20076;-81
2023/12/20 00:13:31;;;;;;;12.02;3.25;;;6.40;92.30;;;;;;5055492;28;20613;-81
2023/12/20 00:15:57;;;;;;;12.50;3.25;;;6.40;92.60;;;;;;5055719;28;20048;-81
2023/12/20 00:18:23;;;;;;;15.85;2.63;;;6.40;92.80;;;;;;5049353;28;20383;-82
2023/12/20 00:20:49;;;;;;;17.08;3.60;;;6.30;92.90;;;;;;5055772;28;20064;-80
2023/12/20 00:23:15;;;;;;;18.33;3.95;;;6.30;93.00;;;;;;5072742;28;20073;-81
2023/12/20 00:25:40;;;;;;;19.58;4.60;;;6.40;93.00;;;;;;5055914;28;20047;-82
2023/12/20 00:28:06;;;;;;;19.77;4.53;;;6.30;93.20;;;;;;5056178;28;20044;-82
2023/12/20 00:30:32;;;;;;;19.48;5.13;;;6.40;93.20;;;;;;5056156;28;20558;-82
2023/12/20 00:32:58;;;;;;;18.05;4.72;;;6.50;93.40;;;;;;5055780;28;20479;-82
2023/12/20 00:35:24;;;;;;;18.45;4.03;;;6.50;93.40;;;;;;5062853;28;20060;-83
2023/12/20 00:37:50;;;;;;;20.38;3.70;;;6.50;93.40;;;;;;5055815;28;20489;-80
2023/12/20 00:40:15;;;;;;;21.58;5.25;;;6.60;93.50;;;;;;5039376;28;20393;-81
2023/12/20 00:42:41;;;;;;;23.13;5.45;;;6.60;93.40;;;;;;5069760;28;20110;-82
2023/12/20 00:45:08;;;;;;;20.17;5.13;;;6.60;93.50;;;;;;5042112;28;20404;-80
2023/12/20 00:47:33;;;;;;;23.70;5.38;;;6.70;93.40;;;;;;5042383;28;20047;-80
2023/12/20 00:49:59;;;;;;;19.90;5.07;;;6.70;93.20;;;;;;5042548;28;20040;-82
2023/12/20 00:52:25;;;;;;;28.00;5.28;;;6.70;93.30;;;;;;5058887;28;20124;-83
2023/12/20 00:54:50;;;;;;;21.75;4.50;;;6.70;93.40;;;;;;5075367;28;20456;-82
2023/12/20 00:57:16;;;;;;;29.38;5.55;;;6.70;93.50;;;;;;5058859;28;20048;-81
2023/12/20 00:59:42;;;;;;;19.02;4.15;;;6.70;93.40;;;;;;5058981;28;20059;-81
2023/12/20 01:02:08;;;;;;;34.92;5.13;;;6.70;93.60;;;;;;5042444;28;20512;-81
2023/12/20 01:04:34;;;;;;;20.30;5.20;;;6.80;93.60;;;;;;5042442;28;20071;-80
2023/12/20 01:07:00;;;;;;;25.95;4.55;;;6.80;93.50;;;;;;5058352;28;20041;-80
2023/12/20 01:09:28;;;;;;;20.17;5.38;;;6.80;93.50;;;;;;5042267;28;20042;-80
2023/12/20 01:11:54;;;;;;;27.10;5.85;;;6.80;93.60;;;;;;5075482;28;20431;-82
2023/12/20 01:14:19;;;;;;;23.05;5.00;;;6.80;93.50;;;;;;5058471;28;20029;-81
2023/12/20 01:16:45;;;;;;;24.55;4.53;;;6.80;93.60;;;;;;5058465;28;20124;-81
2023/12/20 01:19:11;;;;;;;22.17;5.45;;;6.80;93.80;;;;;;5058569;28;20131;-81
2023/12/20 01:21:37;;;;;;;23.10;5.28;;;6.90;93.50;;;;;;5075037;28;20048;-82
2023/12/20 01:24:03;;;;;;;16.92;4.85;;;6.90;93.40;;;;;;5038021;28;20048;-83
2023/12/20 01:26:28;;;;;;;21.05;3.90;;;7.00;93.60;;;;;;5021832;28;20049;-80
2023/12/20 01:28:54;;;;;;;19.88;4.05;;;7.00;93.50;;;;;;5021788;28;20084;-80
2023/12/20 01:31:19;;;;;;;21.90;4.18;;;7.00;93.30;;;;;;5054453;28;20037;-83
2023/12/20 01:33:45;;;;;;;26.38;4.57;;;7.20;92.80;;;;;;5038340;28;20104;-80
2023/12/20 01:36:11;;;;;;;19.90;5.85;;;7.20;92.70;;;;;;5021758;28;20135;-81
2023/12/20 01:38:37;;;;;;;16.98;5.00;;;7.20;92.90;;;;;;5059013;28;20028;-83
2023/12/20 01:41:03;;;;;;;21.98;5.55;;;7.20;92.90;;;;;;5069741;28;20409;-81
2023/12/20 01:43:29;;;;;;;31.88;6.30;;;7.20;92.70;;;;;;5058140;28;20044;-80
2023/12/20 01:45:57;;;;;;;24.00;5.30;;;7.20;92.70;;;;;;5041080;28;20477;-82
2023/12/20 01:48:24;;;;;;;17.42;4.82;;;7.30;92.70;;;;;;5074767;28;20044;-80
2023/12/20 01:50:51;;;;;;;20.20;4.72;;;7.30;92.40;;;;;;5058015;28;20041;-82
2023/12/20 01:53:18;;;;;;;20.85;5.10;;;7.30;92.20;;;;;;5057762;28;20044;-84
2023/12/20 01:55:44;;;;;;;33.55;6.25;;;7.30;92.10;;;;;;5062509;28;20539;-81
2023/12/20 01:58:12;;;;;;;25.30;5.63;;;7.30;91.90;;;;;;5055954;28;20041;-84
2023/12/20 02:00:38;;;;;;;21.13;4.57;;;7.30;91.80;;;;;;5057461;28;20047;-81
2023/12/20 02:03:04;;;;;;;18.23;4.45;;;7.40;91.70;;;;;;5074302;28;20049;-82
2023/12/20 02:05:31;;;;;;;27.48;5.68;;;7.40;91.90;;;;;;5057376;28;20083;-84
2023/12/20 02:07:57;;;;;;;24.70;5.13;;;7.40;91.70;;;;;;5051724;28;20044;-82
2023/12/20 02:10:23;;;;;;;27.27;5.38;;;7.40;92.00;;;;;;5070975;28;20051;-82
2023/12/20 02:12:49;;;;;;;26.15;6.97;;;7.50;91.70;;;;;;5054371;28;20041;-82
2023/12/20 02:15:15;;;;;;;23.02;6.40;;;7.40;91.60;;;;;;5054366;28;20397;-82
2023/12/20 02:17:40;;;;;;;22.55;5.55;;;7.50;91.60;;;;;;5087811;28;20045;-81
2023/12/20 02:20:07;;;;;;;29.70;5.60;;;7.40;91.40;;;;;;5070493;28;20555;-82
2023/12/20 02:22:32;;;;;;;23.73;6.22;;;7.50;91.70;;;;;;5070604;28;20106;-83
2023/12/20 02:25:00;;;;;;;22.58;5.13;;;7.40;91.70;;;;;;5053913;28;20041;-81
2023/12/20 02:27:27;;;;;;;27.35;5.55;;;7.50;91.50;;;;;;5053758;28;20485;-83
2023/12/20 02:29:53;;;;;;;21.92;4.63;;;7.40;91.20;;;;;;5053424;28;20127;-83
2023/12/20 02:32:19;;;;;;;25.20;5.50;;;7.40;91.30;;;;;;5071329;28;20068;-82
2023/12/20 02:34:45;;;;;;;18.77;5.07;;;7.40;91.00;;;;;;5054167;28;20048;-83
2023/12/20 02:37:11;;;;;;;19.67;5.60;;;7.50;91.00;;;;;;5037010;28;20082;-82
2023/12/20 02:39:37;;;;;;;22.05;4.93;;;7.50;90.80;;;;;;5070228;28;20045;-84
2023/12/20 02:42:03;;;;;;;27.42;5.90;;;7.50;90.60;;;;;;5068706;28;20457;-80
2023/12/20 02:44:29;;;;;;;21.85;4.15;;;7.50;90.60;;;;;;5040265;28;20147;-80
2023/12/20 02:46:54;;;;;;;25.35;5.40;;;7.40;90.90;;;;;;5056836;28;20400;-82
2023/12/20 02:49:20;;;;;;;27.17;5.93;;;7.40;90.70;;;;;;5056718;28;20048;-81
2023/12/20 02:51:46;;;;;;;12.40;3.97;;;7.50;90.60;;;;;;5073280;28;20055;-81
2023/12/20 02:54:12;;;;;;;25.98;6.07;;;7.40;90.80;;;;;;5073119;28;20043;-81
2023/12/20 02:56:37;;;;;;;33.05;5.55;;;7.40;90.80;;;;;;5052605;28;20045;-84
2023/12/20 02:59:05;;;;;;;21.05;5.45;;;7.40;90.70;;;;;;5020107;28;20076;-81
2023/12/20 03:01:31;;;;;;;24.23;5.13;;;7.40;90.80;;;;;;5036934;28;20045;-82
2023/12/20 03:03:57;;;;;;;25.80;5.88;;;7.40;91.10;;;;;;5086892;28;20067;-84
2023/12/20 03:06:23;;;;;;;23.17;5.47;;;7.40;90.90;;;;;;5089242;28;20048;-81
2023/12/20 03:08:49;;;;;;;30.67;6.53;;;7.40;90.90;;;;;;5072853;28;20044;-81
2023/12/20 03:11:14;;;;;;;16.75;4.72;;;7.40;90.90;;;;;;5056399;28;20500;-83
2023/12/20 03:13:40;;;;;;;28.02;5.88;;;7.40;91.00;;;;;;5056443;28;20035;-81
2023/12/20 03:16:13;;;;;;;20.92;4.55;;;7.40;90.90;;;;;;5072756;28;20041;-83
2023/12/20 03:18:39;;;;;;;22.25;4.53;;;7.40;91.30;;;;;;5056009;28;20076;-82
2023/12/20 03:21:05;;;;;;;27.35;6.57;;;7.40;91.10;;;;;;5072853;28;20083;-81
2023/12/20 03:23:33;;;;;;;28.73;6.05;;;7.40;91.20;;;;;;5048812;28;20039;-82
2023/12/20 03:25:59;;;;;;;33.42;6.40;;;7.40;91.00;;;;;;5070720;28;20067;-82
2023/12/20 03:28:26;;;;;;;24.88;5.57;;;7.40;90.90;;;;;;5069461;28;20463;-82
2023/12/20 03:30:52;;;;;;;21.13;4.20;;;7.40;90.90;;;;;;5036210;28;20428;-80
2023/12/20 03:33:17;;;;;;;15.73;4.10;;;7.40;91.10;;;;;;5036041;28;20106;-83
2023/12/20 03:35:43;;;;;;;32.03;5.30;;;7.50;91.10;;;;;;5036206;28;20045;-82
2023/12/20 03:38:09;;;;;;;25.10;6.15;;;7.50;91.00;;;;;;5069129;28;20509;-82
2023/12/20 03:40:35;;;;;;;25.48;5.00;;;7.60;90.80;;;;;;5035856;28;20102;-82
2023/12/20 03:43:01;;;;;;;30.20;5.53;;;7.50;90.80;;;;;;5035826;28;20040;-83
2023/12/20 03:45:26;;;;;;;27.52;5.43;;;7.50;90.70;;;;;;5065121;28;20052;-84
2023/12/20 03:47:56;;;;;;;18.48;4.15;;;7.50;90.60;;;;;;5072457;28;20045;-82
2023/12/20 03:50:26;;;;;;;19.73;4.53;;;7.60;90.60;;;;;;5056435;28;20115;-81
2023/12/20 03:52:52;;;;;;;24.63;5.50;;;7.60;90.60;;;;;;5072345;28;20123;-82
2023/12/20 03:55:18;;;;;;;22.70;5.05;;;7.60;90.70;;;;;;5072247;28;20178;-84
2023/12/20 03:57:44;;;;;;;35.10;6.50;;;7.70;90.60;;;;;;5055570;28;20515;-84
2023/12/20 04:00:10;;;;;;;27.50;5.20;;;7.60;90.50;;;;;;5055714;28;20041;-83
2023/12/20 04:02:37;;;;;;;23.90;5.55;;;7.60;90.60;;;;;;5071620;28;20102;-82
2023/12/20 04:05:03;;;;;;;18.50;5.00;;;7.70;90.50;;;;;;5072028;28;20052;-83
2023/12/20 04:07:29;;;;;;;16.08;4.88;;;7.70;90.70;;;;;;5072576;28;20040;-81
2023/12/20 04:09:55;;;;;;;18.25;4.20;;;7.80;90.50;;;;;;5035080;28;20037;-82
2023/12/20 04:12:21;;;;;;;24.95;5.18;;;7.70;90.50;;;;;;5035323;28;20036;-81
2023/12/20 04:14:46;;;;;;;25.30;5.07;;;7.70;90.40;;;;;;5052027;28;20094;-82
2023/12/20 04:17:12;;;;;;;27.30;5.95;;;7.70;90.50;;;;;;5051950;28;20087;-82
2023/12/20 04:19:38;;;;;;;28.23;5.93;;;7.70;90.60;;;;;;5068625;28;20033;-82
2023/12/20 04:22:03;;;;;;;30.60;6.88;;;7.70;91.00;;;;;;5068640;28;20036;-81
2023/12/20 04:24:29;;;;;;;31.88;8.25;;;7.70;91.00;;;;;;5052056;28;20090;-80
2023/12/20 04:26:55;;;;;;;25.30;5.00;;;7.70;91.00;;;;;;5059969;28;20055;-84
2023/12/20 04:29:20;;;;;;;31.02;6.38;;;7.70;91.10;;;;;;5054947;28;20037;-81
2023/12/20 04:31:46;;;;;;;24.10;4.88;;;7.80;90.90;;;;;;5055509;28;20505;-83
2023/12/20 04:34:12;;;;;;;21.48;5.32;;;7.80;90.80;;;;;;5055366;28;20105;-83
2023/12/20 04:36:37;;;;;;;28.73;6.45;;;7.80;90.70;;;;;;5038639;28;20481;-83
2023/12/20 04:39:03;;;;;;;22.25;5.63;;;7.80;90.80;;;;;;5055415;28;20084;-83
2023/12/20 04:41:29;;;;;;;24.40;5.35;;;7.80;90.90;;;;;;5072108;28;20040;-81
2023/12/20 04:43:54;;;;;;;30.15;6.93;;;7.70;90.80;;;;;;5054896;28;20553;-82
2023/12/20 04:46:20;;;;;;;29.55;5.82;;;7.70;91.00;;;;;;5056559;28;20067;-83
2023/12/20 04:48:46;;;;;;;26.05;5.60;;;7.70;91.20;;;;;;5068394;28;20485;-83
2023/12/20 04:51:11;;;;;;;29.42;6.45;;;7.70;91.20;;;;;;5051736;28;20040;-81
2023/12/20 04:53:37;;;;;;;23.73;6.40;;;7.80;91.00;;;;;;5051690;28;20048;-81
2023/12/20 04:56:03;;;;;;;21.92;6.28;;;7.80;91.00;;;;;;5068743;28;20041;-83
2023/12/20 04:58:29;;;;;;;19.77;4.32;;;7.80;90.90;;;;;;5051909;28;20544;-84
2023/12/20 05:00:54;;;;;;;24.33;6.47;;;7.90;90.60;;;;;;5068327;28;20041;-82
2023/12/20 05:03:20;;;;;;;24.52;5.68;;;7.80;90.70;;;;;;5051342;28;20040;-83
2023/12/20 05:05:46;;;;;;;26.00;6.88;;;7.90;90.70;;;;;;5053421;28;20457;-82
2023/12/20 05:08:11;;;;;;;32.22;5.78;;;8.00;90.30;;;;;;5055602;28;20131;-82
2023/12/20 05:10:37;;;;;;;29.73;6.15;;;8.00;90.20;;;;;;5054973;28;20044;-84
2023/12/20 05:13:03;;;;;;;23.80;4.82;;;8.00;90.20;;;;;;5022165;28;20040;-83
2023/12/20 05:15:29;;;;;;;33.15;5.97;;;7.90;90.40;;;;;;5038549;28;20048;-81
2023/12/20 05:17:54;;;;;;;29.92;6.38;;;7.90;90.40;;;;;;5071901;28;20045;-82
2023/12/20 05:20:20;;;;;;;29.05;7.20;;;8.00;90.50;;;;;;5038730;28;20040;-82
2023/12/20 05:22:47;;;;;;;31.92;7.00;;;8.00;90.40;;;;;;5021956;28;20037;-82
2023/12/20 05:25:12;;;;;;;29.63;5.72;;;8.00;90.70;;;;;;5022236;28;20519;-83
2023/12/20 05:27:38;;;;;;;21.90;4.45;;;8.00;90.70;;;;;;5038411;28;20079;-82
2023/12/20 05:30:04;;;;;;;24.15;5.55;;;8.00;90.80;;;;;;5071456;28;20405;-81
2023/12/20 05:32:31;;;;;;;22.70;6.03;;;8.00;90.80;;;;;;5038294;28;20068;-83
2023/12/20 05:34:56;;;;;;;23.42;5.63;;;8.00;90.70;;;;;;5038181;28;20120;-83
2023/12/20 05:37:22;;;;;;;18.27;4.85;;;8.00;90.80;;;;;;5071556;28;20051;-83
2023/12/20 05:39:48;;;;;;;30.50;5.07;;;8.10;90.60;;;;;;5037945;28;20041;-81
2023/12/20 05:42:13;;;;;;;26.08;5.72;;;8.10;90.30;;;;;;5054837;28;20047;-84
2023/12/20 05:44:39;;;;;;;25.52;5.82;;;8.10;90.10;;;;;;5054393;28;20140;-80
2023/12/20 05:47:05;;;;;;;26.40;4.95;;;8.10;89.80;;;;;;5071294;28;20489;-81
2023/12/20 05:49:31;;;;;;;26.00;5.45;;;8.10;90.00;;;;;;5071089;28;20119;-82
2023/12/20 05:51:57;;;;;;;27.52;5.70;;;8.10;90.00;;;;;;5054329;28;20067;-83
2023/12/20 05:54:22;;;;;;;17.90;4.32;;;8.00;90.00;;;;;;5099422;28;20037;-84
2023/12/20 05:56:48;;;;;;;20.77;5.03;;;8.10;90.00;;;;;;5108048;28;20047;-82
2023/12/20 05:59:14;;;;;;;30.00;5.15;;;8.10;89.80;;;;;;5040995;28;20043;-81
2023/12/20 06:01:40;;;;;;;23.42;5.53;;;8.10;89.60;;;;;;5074334;28;20411;-84
2023/12/20 06:04:05;;;;;;;34.50;6.70;;;8.20;89.60;;;;;;5056164;28;20044;-82
2023/12/20 06:06:31;;;;;;;30.75;5.88;;;8.20;89.40;;;;;;5070896;28;20515;-82
2023/12/20 06:08:57;;;;;;;14.95;4.72;;;8.10;89.60;;;;;;5053336;28;20040;-82
2023/12/20 06:11:23;;;;;;;30.20;5.93;;;8.20;89.50;;;;;;5057056;28;20041;-82
2023/12/20 06:13:51;;;;;;;20.25;4.85;;;8.20;88.90;;;;;;5070672;28;20044;-82
2023/12/20 06:16:18;;;;;;;22.27;6.25;;;8.20;89.10;;;;;;5069375;28;20073;-83
2023/12/20 06:18:43;;;;;;;25.13;4.78;;;8.20;89.10;;;;;;5069683;28;20041;-82
2023/12/20 06:21:12;;;;;;;25.45;6.63;;;8.20;89.20;;;;;;5069320;28;20047;-82
2023/12/20 06:23:38;;;;;;;24.23;6.68;;;8.20;89.10;;;;;;5051772;28;20033;-83
2023/12/20 06:26:04;;;;;;;21.98;4.68;;;8.20;89.20;;;;;;5054743;28;20098;-81
2023/12/20 06:28:30;;;;;;;22.90;5.35;;;8.20;89.30;;;;;;5066884;28;20043;-81
2023/12/20 06:30:56;;;;;;;22.00;5.68;;;8.20;89.40;;;;;;5095984;28;20036;-82
2023/12/20 06:33:22;;;;;;;28.77;6.10;;;8.10;89.40;;;;;;5070118;28;20294;-83
2023/12/20 06:35:49;;;;;;;23.40;5.78;;;8.10;89.70;;;;;;5064558;28;20489;-84
2023/12/20 06:38:15;;;;;;;15.38;3.60;;;8.10;89.90;;;;;;5051314;28;20040;-81
2023/12/20 06:40:40;;;;;;;20.60;4.88;;;8.20;89.90;;;;;;5068187;28;20032;-83
2023/12/20 06:43:06;;;;;;;18.10;4.25;;;8.20;89.90;;;;;;5048430;28;20047;-83
2023/12/20 06:45:32;;;;;;;25.63;6.25;;;8.30;89.70;;;;;;5029386;28;20057;-84
2023/12/20 06:47:58;;;;;;;24.08;4.75;;;8.30;89.40;;;;;;5049787;28;20404;-82
2023/12/20 06:50:24;;;;;;;20.17;4.53;;;8.20;89.80;;;;;;5049125;28;20033;-83
2023/12/20 06:52:50;;;;;;;26.40;6.32;;;8.20;89.80;;;;;;5078127;28;20035;-83
2023/12/20 06:55:17;;;;;;;21.92;5.03;;;8.30;89.90;;;;;;5036111;28;20401;-83
2023/12/20 06:57:42;;;;;;;22.10;5.82;;;8.30;89.90;;;;;;5076198;28;20052;-81
2023/12/20 07:00:10;;;;;;;28.17;5.50;;;8.30;89.70;;;;;;5062509;28;20052;-83
2023/12/20 07:02:36;;;;;;;19.20;5.00;;;8.30;89.50;;;;;;5089076;28;20037;-82
2023/12/20 07:05:02;;;;;;;27.20;6.28;;;8.30;89.70;;;;;;5074804;28;20052;-81
2023/12/20 07:07:28;;;;;;;26.83;6.47;;;8.30;89.80;;;;;;5042877;28;20042;-82
2023/12/20 07:09:53;;;;;;;26.40;5.95;;;8.30;90.00;;;;;;5056469;28;20623;-82
2023/12/20 07:12:19;;;;;;;28.42;6.63;;;8.20;89.80;;;;;;5074365;28;20051;-81
2023/12/20 07:14:45;;;;;;;23.77;6.13;;;8.20;89.70;;;;;;5054760;28;20085;-81
2023/12/20 07:17:13;;;;;;;17.23;4.20;;;8.20;89.70;;;;;;5058619;28;20037;-82
2023/12/20 07:19:39;;;;;;;28.88;5.60;;;8.20;89.70;;;;;;5058778;28;20109;-81
2023/12/20 07:22:06;;;;;;;21.63;5.18;;;8.20;89.70;;;;;;5057839;28;20055;-82
2023/12/20 07:24:32;;;;;;;24.80;5.80;;;8.20;89.60;;;;;;5056999;28;20044;-81
2023/12/20 07:26:59;;;;;;;26.33;5.85;;;8.20;89.10;;;;;;5057552;28;20090;-82
2023/12/20 07:29:25;;;;;;;22.67;6.55;;;8.20;89.10;;;;;;5058637;28;20143;-81
2023/12/20 07:31:52;;;;;;;13.35;4.45;;;8.20;89.30;;;;;;5075153;28;20134;-83
2023/12/20 07:34:18;;;;;;;18.15;5.22;;;8.30;89.30;;;;;;5059704;28;20051;-82
2023/12/20 07:36:43;;;;;;;22.98;5.85;;;8.30;89.30;;;;;;5058476;28;20040;-82
2023/12/20 07:39:10;;;;;;;24.50;5.80;;;8.30;89.20;;;;;;5056261;28;20048;-82
2023/12/20 07:41:35;;;;;;;26.83;6.78;;;8.30;89.50;;;;;;5073692;28;20481;-81
2023/12/20 07:44:01;;;;;;;20.15;6.00;;;8.30;89.50;;;;;;5055438;28;20144;-82
2023/12/20 07:46:27;;;;;;;22.88;5.95;;;8.30;89.50;;;;;;5073396;28;20091;-82
2023/12/20 07:48:52;;;;;;;22.20;4.72;;;8.30;89.70;;;;;;5035703;28;20561;-82
2023/12/20 07:51:18;;;;;;;21.25;5.40;;;8.30;89.80;;;;;;5042731;28;20122;-83
2023/12/20 07:53:44;;;;;;;24.95;5.05;;;8.30;89.70;;;;;;5070928;28;20039;-82
2023/12/20 07:56:17;;;;;;;24.23;6.10;;;8.30;89.90;;;;;;5074457;28;20040;-81
2023/12/20 07:58:44;;;;;;;15.07;4.65;;;8.30;89.90;;;;;;5053928;28;20452;-80
2023/12/20 08:01:11;;;;;;;14.70;4.68;;;8.30;89.30;;;;;;5057958;28;20048;-78
2023/12/20 08:03:38;;;;;;;12.77;3.53;;;8.20;89.60;;;;;;5069343;28;20044;-81
2023/12/20 08:06:04;;;;;;;14.98;3.67;;;8.10;89.80;;;;;;5082356;28;20075;-80
2023/12/20 08:08:30;;;;;;;12.40;3.55;;;8.00;90.30;;;;;;5071361;28;20565;-80
2023/12/20 08:10:59;;;;;;;22.98;4.93;;;7.90;90.30;;;;;;5038482;28;20392;-78
2023/12/20 08:13:25;;;;;;;22.42;5.30;;;7.90;90.70;;;;;;5070697;28;20044;-79
2023/12/20 08:15:52;;;;;;;23.55;4.97;;;7.80;91.10;;;;;;5067482;28;20083;-79
2023/12/20 08:18:17;;;;;;;19.17;3.67;;;7.80;91.50;;;;;;5034877;28;20128;-83
2023/12/20 08:20:43;;;;;;;26.58;6.63;;;7.80;92.00;;;;;;5034928;28;20068;-79
2023/12/20 08:23:09;;;;;;;18.90;5.35;;;7.90;92.00;;;;;;5051744;28;20037;-81
2023/12/20 08:25:34;;;;;;;24.85;5.40;;;7.90;91.90;;;;;;5039077;28;20515;-80
2023/12/20 08:28:02;;;;;;;23.30;4.72;;;8.00;91.90;;;;;;5105371;28;20098;-81
2023/12/20 08:30:29;;;;;;;21.80;6.20;;;8.00;91.60;;;;;;5053319;28;20038;-81
2023/12/20 08:32:55;;;;;;;15.40;4.25;;;8.10;91.60;;;;;;5058361;28;20044;-80
2023/12/20 08:35:21;;;;;;;21.02;5.15;;;8.10;91.70;;;;;;5070986;28;20056;-82
2023/12/20 08:37:46;;;;;;;19.67;4.30;;;8.10;91.40;;;;;;5073736;28;20349;-80
2023/12/20 08:40:12;;;;;;;14.88;4.18;;;8.20;91.40;;;;;;5092199;28;20039;-80
2023/12/20 08:42:38;;;;;;;27.95;6.85;;;8.20;91.20;;;;;;5084003;28;20044;-81
2023/12/20 08:45:04;;;;;;;12.52;4.38;;;8.20;91.20;;;;;;5038457;28;20049;-81
2023/12/20 08:47:30;;;;;;;32.42;6.78;;;8.30;90.80;;;;;;5022235;28;20043;-80
2023/12/20 08:49:59;;;;;;;18.50;5.13;;;8.30;90.20;;;;;;5058011;28;20404;-80
2023/12/20 08:52:27;;;;;;;18.48;4.75;;;8.30;90.20;;;;;;5063279;28;20040;-80
2023/12/20 08:54:53;;;;;;;26.90;5.20;;;8.40;90.00;;;;;;5077605;28;20390;-81
2023/12/20 08:57:25;;;;;;;24.63;5.50;;;8.40;89.90;;;;;;5083246;28;20040;-81
2023/12/20 08:59:51;;;;;;;15.73;3.63;;;8.40;90.00;;;;;;5054828;28;20033;-82
2023/12/20 09:02:17;;;;;;;7.00;2.10;;;8.40;89.80;;;;;;5036109;28;20032;-80
2023/12/20 09:04:43;;;;;;;12.30;2.08;;;8.30;89.60;;;;;;5054732;28;20098;-82
2023/12/20 09:07:25;;;;;;;10.63;2.03;;;8.00;89.00;;;;;;5054214;28;20032;-81
2023/12/20 09:09:52;;;;;;;9.68;1.98;;;7.60;88.80;;;;;;5054881;28;20037;-80
2023/12/20 09:12:19;;;;;;;6.43;1.73;;;7.40;89.00;;;;;;5045859;28;20040;-81
2023/12/20 09:14:49;;;;;;;9.90;1.92;;;7.30;89.20;;;;;;5055212;28;20396;-81
2023/12/20 09:17:16;;;;;;;8.10;1.63;;;7.10;89.60;;;;;;5073388;28;20040;-80
2023/12/20 09:19:43;;;;;;;8.38;1.73;;;7.10;90.00;;;;;;5074846;28;20045;-80
2023/12/20 09:22:09;;;;;;;12.52;1.73;;;7.10;90.50;;;;;;5062945;28;20039;-79
2023/12/20 09:24:35;;;;;;;9.40;1.73;;;7.00;90.60;;;;;;5067906;28;20036;-80
2023/12/20 09:27:01;;;;;;;10.45;1.67;;;6.90;91.00;;;;;;5082779;28;20036;-80
2023/12/20 09:29:26;;;;;;;11.32;2.17;;;7.00;91.30;;;;;;5066232;28;20123;-80
2023/12/20 09:31:52;;;;;;;7.95;2.45;;;6.90;91.50;;;;;;5081889;28;20507;-79
2023/12/20 09:34:18;;;;;;;9.98;2.00;;;6.90;91.70;;;;;;5063646;28;20045;-78
2023/12/20 09:36:47;;;;;;;13.55;3.45;;;6.80;91.80;;;;;;5083927;28;20040;-79
2023/12/20 09:39:14;;;;;;;12.75;3.95;;;6.80;92.10;;;;;;5082855;28;20451;-80
2023/12/20 09:41:44;;;;;;;12.05;2.25;;;6.80;92.30;;;;;;5078546;28;20055;-80
2023/12/20 09:44:17;;;;;;;15.07;2.78;;;6.80;92.40;;;;;;5094991;28;20050;-81
2023/12/20 09:46:45;;;;;;;14.75;2.28;;;6.90;92.50;;;;;;5077785;28;20392;-80
2023/12/20 09:49:12;;;;;;;13.57;2.25;;;6.90;92.40;;;;;;5093298;28;20032;-80
2023/12/20 09:51:39;;;;;;;18.98;3.17;;;6.80;92.60;;;;;;5075952;28;20042;-81
2023/12/20 09:54:05;;;;;;;11.02;2.22;;;6.90;92.40;;;;;;5092799;28;20474;-81
2023/12/20 09:56:31;;;;;;;10.68;2.30;;;6.90;92.10;;;;;;5075911;28;20040;-81
2023/12/20 09:58:57;;;;;;;11.43;1.60;;;7.00;91.50;;;;;;5092821;28;20065;-82
2023/12/20 10:01:24;;;;;;;11.35;2.05;;;6.90;90.90;;;;;;5093199;28;20039;-81
2023/12/20 10:03:53;;;;;;;11.43;2.20;;;6.90;90.20;;;;;;5077322;28;20078;-82
2023/12/20 10:06:19;;;;;;;9.57;1.95;;;7.00;89.80;;;;;;5093126;28;20093;-82
2023/12/20 10:08:45;;;;;;;11.50;2.00;;;7.00;89.70;;;;;;5093904;28;20032;-82
2023/12/20 10:11:11;;;;;;;7.53;1.63;;;7.00;89.40;;;;;;5094014;28;20036;-81
2023/12/20 10:13:41;;;;;;;10.18;3.05;;;7.00;89.20;;;;;;5093958;28;20123;-83
2023/12/20 10:16:07;;;;;;;15.13;2.45;;;7.10;89.20;;;;;;5093877;28;20044;-82
2023/12/20 10:18:33;;;;;;;8.10;1.83;;;7.10;89.20;;;;;;5076909;28;20051;-83
2023/12/20 10:21:00;;;;;;;13.25;2.80;;;7.20;89.10;;;;;;5077159;28;20624;-81
2023/12/20 10:23:26;;;;;;;10.80;2.50;;;7.30;88.80;;;;;;5076761;28;20051;-81
2023/12/20 10:26:01;;;;;;;10.93;2.20;;;7.30;88.80;;;;;;5093557;28;20040;-81
2023/12/20 10:28:32;;;;;;;11.40;2.15;;;7.40;88.60;;;;;;5074465;28;20510;-80
2023/12/20 10:30:58;;;;;;;12.85;2.03;;;7.40;88.60;;;;;;5092316;28;20040;-81
2023/12/20 10:33:32;;;;;;;9.50;3.08;;;7.40;88.70;;;;;;5040138;28;20389;-83
2023/12/20 10:35:58;;;;;;;12.40;2.88;;;7.50;88.60;;;;;;5056866;28;20040;-82
2023/12/20 10:38:23;;;;;;;15.35;2.63;;;7.50;88.40;;;;;;5039757;28;20508;-83
2023/12/20 10:40:54;;;;;;;13.80;3.22;;;7.50;88.50;;;;;;5073120;28;20110;-82
2023/12/20 10:43:20;;;;;;;10.95;2.65;;;7.50;88.30;;;;;;5056168;28;20284;-83
2023/12/20 10:45:46;;;;;;;10.05;2.10;;;7.60;88.50;;;;;;5039359;28;20052;-83
2023/12/20 10:48:12;;;;;;;12.95;2.72;;;7.60;88.50;;;;;;5023212;28;20051;-82
2023/12/20 10:50:38;;;;;;;16.90;2.60;;;7.60;88.50;;;;;;5039863;28;20459;-82
2023/12/20 10:53:04;;;;;;;13.50;2.42;;;7.60;88.40;;;;;;5072918;28;20550;-83
2023/12/20 10:55:30;;;;;;;11.43;2.10;;;7.70;88.40;;;;;;5056328;28;20040;-82
2023/12/20 10:58:01;;;;;;;12.45;1.92;;;7.60;88.40;;;;;;5072933;28;20392;-82
2023/12/20 11:00:32;;;;;;;15.23;2.92;;;7.70;88.30;;;;;;5056018;28;20052;-83
2023/12/20 11:03:02;;;;;;;9.73;2.25;;;7.70;87.90;;;;;;5055699;28;20052;-82
2023/12/20 11:05:57;;;;;;;14.15;2.70;;;7.70;87.80;;;;;;5072672;28;20048;-83
2023/12/20 11:08:35;;;;;;;8.57;2.15;;;7.70;87.80;;;;;;5056128;28;20111;-81
2023/12/20 11:11:12;;;;;;;15.90;3.47;;;7.80;87.80;;;;;;5072533;28;20127;-81
2023/12/20 11:13:54;;;;;;;14.27;3.08;;;7.80;87.50;;;;;;5052524;28;20036;-84
2023/12/20 11:16:20;;;;;;;24.13;4.85;;;7.80;87.60;;;;;;5038687;28;20041;-82
2023/12/20 11:18:46;;;;;;;12.32;2.83;;;7.80;87.60;;;;;;5039516;28;20089;-82
2023/12/20 11:21:14;;;;;;;13.25;2.83;;;7.90;87.70;;;;;;5022777;28;20443;-80
2023/12/20 11:23:42;;;;;;;15.95;3.03;;;8.00;87.90;;;;;;5056162;28;20044;-83
2023/12/20 11:26:08;;;;;;;17.38;3.85;;;8.00;87.40;;;;;;5055613;28;20041;-83
2023/12/20 11:28:34;;;;;;;11.52;2.50;;;8.00;87.50;;;;;;5072136;28;20036;-83
2023/12/20 11:31:01;;;;;;;11.80;2.70;;;8.10;87.40;;;;;;5072147;28;20041;-81
2023/12/20 11:33:36;;;;;;;12.73;3.00;;;8.10;86.90;;;;;;5077321;28;20070;-82
2023/12/20 11:36:02;;;;;;;14.00;4.22;;;8.10;87.00;;;;;;5065309;28;20040;-81
2023/12/20 11:38:37;;;;;;;11.85;2.90;;;8.10;87.00;;;;;;5055429;28;20045;-82
2023/12/20 11:41:06;;;;;;;13.25;3.30;;;8.10;86.60;;;;;;5038934;28;20050;-82
2023/12/20 11:43:37;;;;;;;15.15;2.53;;;8.10;86.70;;;;;;5055301;28;20127;-83
2023/12/20 11:46:08;;;;;;;17.42;3.75;;;8.10;87.00;;;;;;5105063;28;20068;-81
2023/12/20 11:48:40;;;;;;;11.45;3.08;;;8.10;87.20;;;;;;5054478;28;20358;-83
2023/12/20 11:51:15;;;;;;;20.13;3.95;;;8.10;87.20;;;;;;5054454;28;20101;-83
2023/12/20 11:53:42;;;;;;;15.90;3.42;;;8.10;87.30;;;;;;5037838;28;20119;-82
2023/12/20 11:56:08;;;;;;;14.38;3.55;;;8.10;86.90;;;;;;5071037;28;20501;-84
2023/12/20 11:58:35;;;;;;;13.82;3.85;;;8.10;86.90;;;;;;5054489;28;20152;-83
2023/12/20 12:01:04;;;;;;;30.27;4.35;;;8.10;86.90;;;;;;5071291;28;20044;-82
2023/12/20 12:03:30;;;;;;;13.32;3.10;;;8.10;87.20;;;;;;5022159;28;20086;-83
2023/12/20 12:05:56;;;;;;;14.13;3.60;;;8.10;87.70;;;;;;5054388;28;20040;-82
2023/12/20 12:08:21;;;;;;;18.77;3.05;;;8.10;88.40;;;;;;5054386;28;20068;-83
2023/12/20 12:10:47;;;;;;;17.80;4.13;;;8.10;89.10;;;;;;5037914;28;20032;-83
2023/12/20 12:13:14;;;;;;;12.52;3.15;;;8.10;89.80;;;;;;5037636;28;20373;-82
2023/12/20 12:15:42;;;;;;;20.73;3.22;;;8.00;90.10;;;;;;5053233;28;20044;-82
2023/12/20 12:18:08;;;;;;;12.75;2.55;;;8.00;90.60;;;;;;5054485;28;20210;-81
2023/12/20 12:20:33;;;;;;;15.45;3.90;;;7.90;90.90;;;;;;5047877;28;20119;-82
2023/12/20 12:23:00;;;;;;;11.32;3.03;;;7.90;90.90;;;;;;5075920;28;20090;-81
2023/12/20 12:25:27;;;;;;;14.50;2.33;;;7.90;91.00;;;;;;5053961;28;20048;-80
2023/12/20 12:27:52;;;;;;;10.18;1.90;;;7.80;90.80;;;;;;5054131;28;20051;-81
2023/12/20 12:30:18;;;;;;;8.98;2.10;;;7.80;90.80;;;;;;5070541;28;20037;-82
2023/12/20 12:32:44;;;;;;;11.90;2.15;;;7.70;90.30;;;;;;5070540;28;20040;-81
2023/12/20 12:35:11;;;;;;;14.50;2.90;;;7.60;89.50;;;;;;5037392;28;20477;-81
2023/12/20 12:37:41;;;;;;;9.93;2.50;;;7.60;89.10;;;;;;5070496;28;20134;-83
2023/12/20 12:40:10;;;;;;;8.57;2.13;;;7.50;89.60;;;;;;5070447;28;20044;-81
2023/12/20 12:42:40;;;;;;;8.95;1.77;;;7.50;89.70;;;;;;5070336;28;20611;-81
2023/12/20 12:45:06;;;;;;;12.07;2.47;;;7.40;89.80;;;;;;4998835;28;1121261;-81